ARCT2: Red River, ARthur City

                                SHEF ID:       ARCT2     Red River at Arthur City, TX
STATION TYPE: Stream Gauge
Regulating: Stage = 27.00, Flow = 84609

PRECIP ELEVATION STAGE STAGE(2) RIV-FLOW BAT-LOAD
in ft ft ft cfs volt
Ccp-Rev Ccp-Rev Ccp-Rev Ccp-Rev Ccp-Rev Ccp-Rev
(America/Chicago)
03/16 00:00 0.00 ---- 5.42 ---- 2604 12.49
03/16 01:00 0.00 ---- 5.42 ---- 2604 12.49
03/16 02:00 0.00 ---- 5.36 ---- 2528 12.41
03/16 03:00 0.00 ---- 5.34 ---- 2502 12.41
03/16 04:00 0.00 ---- 5.34 ---- 2502 12.41
03/16 05:00 0.00 ---- 5.38 ---- 2553 12.41
03/16 06:00 0.00 ---- 5.37 ---- 2540 12.33
03/16 07:00 0.00 ---- 5.38 ---- 2553 12.33
03/16 08:00 0.00 ---- 5.26 ---- 2402 12.25
03/16 09:00 0.00 ---- 5.17 ---- 2292 12.49
03/16 10:00 0.00 ---- 5.14 ---- 2255 13.68
03/16 11:00 0.00 ---- 5.17 ---- 2292 14.72
03/16 12:00 0.00 ---- 5.12 ---- 2231 14.32
03/16 13:00 0.00 ---- 5.07 ---- 2172 14.40
03/16 14:00 0.00 ---- 5.08 ---- 2184 14.32
03/16 15:00 0.00 ---- 5.04 ---- 2136 14.08
03/16 16:00 0.00 ---- 4.99 ---- 2078 14.00
03/16 17:00 0.00 ---- 4.99 ---- 2078 14.16
03/16 18:00 0.00 ---- 4.99 ---- 2078 14.08
03/16 19:00 0.00 ---- 4.98 ---- 2066 13.84
03/16 20:00 0.00 ---- 5.02 ---- 2113 13.37
03/16 21:00 0.00 ---- 5.01 ---- 2101 12.81
03/16 22:00 0.00 ---- 5.01 ---- 2101 12.57
03/16 23:00 0.00 ---- 4.99 ---- 2078 12.49
Data processed at Tue 17Mar2026 04:30 GMT

NOTICE: If you are parsing this page

Please convert to using our Data API. Starting early 2026 we will be migrating to: https://water.usace.army.mil with modern pages rendered in JavaScript. When this migration completes you will no longer be able to scrape this page! CWMSDataAPI (CDA)

Timeseries IDs (TSIDs)

TSIDs used from left to right in the data table
ARTH.Precip-Inc.Total.1Hour.1Hour.Ccp-Rev
ARTH.Stage.Inst.1Hour.0.Ccp-Rev
ARTH.Stage-Alt.Inst.1Hour.0.Ccp-Rev
ARTH.Flow.Inst.1Hour.0.Ccp-Rev
ARTH.Volt-Battery Load.Inst.1Hour.0.Ccp-Rev

                            

All information presented herein is the property of the government of the United States of America and may be revised or deleted at any time without prior notice. Dissemination of this information without the expressed written consent of the Public Affairs Office, Tulsa District U.S. Army Corps of Engineers is strictly prohibited. These data are gathered electronically and, as presented, have NOT undergone any form of quality control. These data are NOT guaranteed to be valid or correct.